Time;durP1;ratioP1;P1;durP2;ratioP2;P2;SDS_P1;SDS_P2;PMS_P1;PMS_P2;Temp;Humidity;BMP_temperature;BMP_pressure;BME280_temperature;BME280_humidity;BME280_pressure;Samples;Min_cycle;Max_cycle;Signal;HPM_P1;HPM_P2
2023/07/15 00:01:08;;;;;;;8.00;4.80;;;;;;;18.59;100.00;99701.59;104972;1256;73918;-62
2023/07/15 00:03:36;;;;;;;6.60;5.50;;;;;;;18.62;100.00;99702.61;105027;1261;67372;-62
2023/07/15 00:06:05;;;;;;;7.70;5.50;;;;;;;18.63;100.00;99702.67;105145;1260;71253;-61
2023/07/15 00:08:33;;;;;;;8.50;6.10;;;;;;;18.65;100.00;99704.71;105147;1261;60482;-62
2023/07/15 00:11:01;;;;;;;6.10;5.50;;;;;;;18.66;100.00;99709.30;105109;1256;60349;-62
2023/07/15 00:13:28;;;;;;;8.30;6.10;;;;;;;18.66;100.00;99711.05;105177;1256;72418;-79
2023/07/15 00:15:57;;;;;;;6.40;5.70;;;;;;;18.66;100.00;99717.17;105053;1256;67866;-62
2023/07/15 00:18:25;;;;;;;9.40;6.70;;;;;;;18.67;100.00;99723.40;105079;1256;72543;-61
2023/07/15 00:20:52;;;;;;;8.20;5.60;;;;;;;18.66;100.00;99728.63;105158;1256;61818;-65
2023/07/15 00:23:23;;;;;;;6.70;6.10;;;;;;;18.67;100.00;99725.04;105015;1256;60429;-79
2023/07/15 00:25:51;;;;;;;7.10;5.80;;;;;;;18.65;100.00;99725.04;105188;1256;72547;-77
2023/07/15 00:28:19;;;;;;;7.80;6.10;;;;;;;18.64;100.00;99725.04;105127;1256;65426;-62
2023/07/15 00:30:51;;;;;;;8.80;6.30;;;;;;;18.63;100.00;99724.86;105872;1260;72735;-65
2023/07/15 00:33:19;;;;;;;10.10;6.30;;;;;;;18.58;100.00;99724.75;105646;1254;62087;-76
2023/07/15 00:35:47;;;;;;;8.00;5.90;;;;;;;18.51;100.00;99724.52;105454;1260;59848;-76
2023/07/15 00:38:14;;;;;;;9.40;6.30;;;;;;;18.45;100.00;99725.08;105077;1256;72544;-60
2023/07/15 00:40:45;;;;;;;9.60;7.10;;;;;;;18.39;100.00;99725.66;105137;1262;66049;-61
2023/07/15 00:43:50;;;;;;;8.40;6.20;;;;;;;18.34;100.00;99720.80;105133;1257;71767;-77
2023/07/15 00:46:17;;;;;;;9.30;6.60;;;;;;;18.30;100.00;99730.56;105119;1256;62608;-61
2023/07/15 00:48:53;;;;;;;10.60;7.30;;;;;;;18.25;100.00;99728.97;105517;1256;60375;-71
2023/07/15 00:51:21;;;;;;;8.80;6.60;;;;;;;18.23;100.00;99733.45;105718;1257;73992;-62
2023/07/15 00:53:48;;;;;;;8.50;6.90;;;;;;;18.21;100.00;99732.58;105029;1260;65987;-62
2023/07/15 00:56:16;;;;;;;9.30;6.70;;;;;;;18.19;100.00;99734.46;104968;1256;71581;-78
2023/07/15 00:58:43;;;;;;;13.20;6.50;;;;;;;18.18;100.00;99738.34;104931;1257;60640;-61
2023/07/15 01:01:10;;;;;;;7.70;6.30;;;;;;;18.17;100.00;99736.48;105828;1256;60540;-67
2023/07/15 01:03:44;;;;;;;8.60;7.10;;;;;;;18.17;100.00;99737.27;104980;1261;73878;-62
2023/07/15 01:06:12;;;;;;;9.90;8.00;;;;;;;18.16;100.00;99739.42;105472;1254;66992;-77
2023/07/15 01:08:40;;;;;;;6.80;6.10;;;;;;;18.16;100.00;99734.78;105357;1254;73241;-61
2023/07/15 01:11:07;;;;;;;12.60;7.30;;;;;;;18.14;100.00;99732.07;105995;1254;62019;-63
2023/07/15 01:13:34;;;;;;;12.10;7.50;;;;;;;18.14;100.00;99731.95;105243;1254;60688;-61
2023/07/15 01:16:01;;;;;;;9.80;7.40;;;;;;;18.13;100.00;99734.53;105590;1258;73939;-60
2023/07/15 01:18:31;;;;;;;9.30;6.60;;;;;;;18.13;100.00;99734.74;105143;1263;67250;-62
2023/07/15 01:20:59;;;;;;;9.20;7.30;;;;;;;18.13;100.00;99738.33;105163;1256;72485;-65
2023/07/15 01:23:29;;;;;;;9.90;7.00;;;;;;;18.13;100.00;99745.19;104967;1256;61155;-63
2023/07/15 01:25:56;;;;;;;9.00;6.90;;;;;;;18.13;100.00;99748.20;105152;1261;60506;-62
2023/07/15 01:28:23;;;;;;;8.10;6.70;;;;;;;18.14;100.00;99754.48;105039;1264;72742;-62
2023/07/15 01:30:50;;;;;;;9.40;7.50;;;;;;;18.13;100.00;99757.80;105089;1256;67330;-61
2023/07/15 01:33:21;;;;;;;11.50;7.50;;;;;;;18.12;100.00;99756.20;105894;1260;72749;-61
2023/07/15 01:35:51;;;;;;;9.30;7.50;;;;;;;18.12;100.00;99761.27;105217;1260;60847;-67
2023/07/15 01:38:19;;;;;;;10.80;7.90;;;;;;;18.12;100.00;99763.39;105133;1258;60571;-64
2023/07/15 01:40:47;;;;;;;9.40;7.50;;;;;;;18.11;100.00;99769.75;105143;1255;72814;-61
2023/07/15 01:43:14;;;;;;;8.20;6.90;;;;;;;18.10;100.00;99770.41;105284;1260;65867;-61
2023/07/15 01:45:41;;;;;;;13.60;7.50;;;;;;;18.10;100.00;99778.16;105264;1256;72956;-68
2023/07/15 01:48:08;;;;;;;10.30;8.10;;;;;;;18.09;100.00;99779.38;105051;1262;60955;-63
2023/07/15 01:50:36;;;;;;;8.90;7.20;;;;;;;18.08;100.00;99783.59;105721;1256;60330;-64
2023/07/15 01:53:04;;;;;;;10.40;7.30;;;;;;;18.07;100.00;99787.14;105037;1260;73743;-61
2023/07/15 01:55:32;;;;;;;10.20;7.30;;;;;;;18.05;100.00;99789.66;105265;1256;66893;-76
2023/07/15 01:58:01;;;;;;;10.10;7.40;;;;;;;18.05;100.00;99792.09;104979;1256;73377;-63
2023/07/15 02:00:29;;;;;;;9.80;8.00;;;;;;;18.05;100.00;99792.88;105365;1256;61376;-61
2023/07/15 02:02:56;;;;;;;8.20;7.40;;;;;;;18.05;100.00;99794.45;105309;1256;60447;-62
2023/07/15 02:05:23;;;;;;;9.90;7.80;;;;;;;18.06;100.00;99796.05;105216;1260;73847;-61
2023/07/15 02:07:50;;;;;;;8.60;7.60;;;;;;;18.07;100.00;99794.39;105039;1261;65719;-61
2023/07/15 02:10:21;;;;;;;8.00;7.20;;;;;;;18.10;100.00;99796.99;105000;1262;72749;-61
2023/07/15 02:12:48;;;;;;;10.20;7.70;;;;;;;18.12;100.00;99794.47;105664;1256;61838;-61
2023/07/15 02:15:15;;;;;;;9.10;7.80;;;;;;;18.18;100.00;99795.27;105140;1261;60428;-61
2023/07/15 02:17:45;;;;;;;9.90;7.90;;;;;;;18.28;100.00;99791.29;105058;1261;74029;-78
2023/07/15 02:20:12;;;;;;;9.30;8.40;;;;;;;18.46;100.00;99797.05;105128;1256;65698;-63
2023/07/15 02:22:41;;;;;;;8.20;7.40;;;;;;;18.69;100.00;99803.55;105047;1256;71527;-62
2023/07/15 02:25:08;;;;;;;8.60;7.60;;;;;;;18.96;100.00;99811.56;105090;1261;61406;-64
2023/07/15 02:27:35;;;;;;;8.50;7.60;;;;;;;19.24;100.00;99813.19;105360;1256;60383;-79
2023/07/15 02:30:05;;;;;;;8.90;7.90;;;;;;;19.50;100.00;99813.05;105081;1260;74376;-64
2023/07/15 02:32:35;;;;;;;9.70;7.50;;;;;;;19.74;100.00;99814.27;104901;1261;65889;-63
2023/07/15 02:35:03;;;;;;;8.80;7.30;;;;;;;19.88;100.00;99814.67;105339;1258;72665;-65
2023/07/15 02:37:31;;;;;;;8.20;7.40;;;;;;;19.96;100.00;99812.39;105532;1256;62095;-69
2023/07/15 02:39:58;;;;;;;8.20;7.30;;;;;;;20.07;100.00;99812.73;105079;1261;60385;-62
2023/07/15 02:42:25;;;;;;;9.90;8.60;;;;;;;20.12;100.00;99812.44;105069;1256;75021;-62
2023/07/15 02:44:52;;;;;;;15.30;12.70;;;;;;;20.05;100.00;99812.93;105281;1256;67357;-62
2023/07/15 02:47:20;;;;;;;22.80;17.00;;;;;;;19.97;100.00;99814.20;104955;1256;72570;-65
2023/07/15 02:49:48;;;;;;;9.70;8.60;;;;;;;19.91;100.00;99817.08;105189;1261;60461;-78
2023/07/15 02:52:15;;;;;;;7.80;7.00;;;;;;;19.86;100.00;99816.51;105077;1260;60785;-62
2023/07/15 02:54:45;;;;;;;9.50;7.90;;;;;;;19.81;100.00;99820.87;104868;1260;73691;-63
2023/07/15 02:57:12;;;;;;;11.10;9.00;;;;;;;19.78;100.00;99829.31;105090;1256;66031;-62
2023/07/15 02:59:39;;;;;;;11.10;7.10;;;;;;;19.79;100.00;99823.88;105407;1257;70430;-78
2023/07/15 03:02:06;;;;;;;8.80;7.40;;;;;;;19.84;100.00;99826.13;105178;1261;61012;-62
2023/07/15 03:04:34;;;;;;;33.40;19.30;;;;;;;20.13;100.00;99828.16;105023;1256;60607;-62
2023/07/15 03:07:01;;;;;;;25.80;19.20;;;;;;;20.46;100.00;99834.37;105496;1257;73888;-62
2023/07/15 03:09:29;;;;;;;25.30;15.20;;;;;;;20.74;100.00;99833.00;105726;1256;65962;-67
2023/07/15 03:11:56;;;;;;;21.80;16.50;;;;;;;21.14;100.00;99829.45;105740;1258;73260;-78
2023/07/15 03:14:23;;;;;;;59.20;47.70;;;;;;;21.62;100.00;99824.02;105370;1260;61334;-65
2023/07/15 03:16:50;;;;;;;73.00;62.00;;;;;;;22.17;100.00;99822.62;105421;1260;60428;-63
2023/07/15 03:19:17;;;;;;;58.40;46.40;;;;;;;22.66;100.00;99813.02;105355;1260;73786;-62
2023/07/15 03:21:44;;;;;;;127.90;114.00;;;;;;;23.11;100.00;99808.27;105435;1260;67250;-65
2023/07/15 03:24:11;;;;;;;178.00;160.00;;;;;;;23.53;100.00;99802.14;105357;1261;73250;-62
2023/07/15 03:26:39;;;;;;;50.90;45.50;;;;;;;23.81;100.00;99791.25;106078;1256;60541;-63
2023/07/15 03:29:08;;;;;;;31.60;28.60;;;;;;;24.06;100.00;99786.48;105329;1261;60496;-63
2023/07/15 03:31:38;;;;;;;40.10;36.90;;;;;;;24.29;100.00;99777.05;105894;1260;73871;-75
2023/07/15 03:34:05;;;;;;;30.20;28.00;;;;;;;24.32;100.00;99768.10;105484;1260;66228;-63
2023/07/15 03:36:34;;;;;;;34.30;31.70;;;;;;;24.02;100.00;99773.84;105482;1256;72175;-62
2023/07/15 03:39:01;;;;;;;42.00;38.30;;;;;;;23.64;100.00;99767.73;105482;1262;60576;-62
2023/07/15 03:41:28;;;;;;;29.50;27.10;;;;;;;23.23;100.00;99773.03;105317;1256;60470;-74
2023/07/15 03:43:55;;;;;;;38.40;35.60;;;;;;;22.87;100.00;99777.41;105666;1260;73722;-75
2023/07/15 03:46:23;;;;;;;31.10;28.30;;;;;;;22.57;100.00;99776.47;105569;1261;65793;-64
2023/07/15 03:48:51;;;;;;;70.00;64.10;;;;;;;22.35;100.00;99779.45;105493;1257;72996;-63
2023/07/15 03:51:18;;;;;;;85.10;77.80;;;;;;;22.20;100.00;99784.82;105585;1257;60526;-66
2023/07/15 03:53:45;;;;;;;79.80;72.70;;;;;;;22.04;100.00;99788.29;107386;1257;60483;-75
2023/07/15 03:56:12;;;;;;;23.00;20.80;;;;;;;21.90;100.00;99800.21;105744;1260;73041;-65
2023/07/15 03:58:39;;;;;;;53.20;48.20;;;;;;;21.82;100.00;99804.27;105856;1256;67198;-65
2023/07/15 04:01:06;;;;;;;54.70;49.30;;;;;;;21.82;100.00;99810.95;105548;1262;72604;-62
2023/07/15 04:03:34;;;;;;;91.80;83.30;;;;;;;21.87;100.00;99809.73;105415;1260;60544;-62
2023/07/15 04:06:01;;;;;;;32.90;29.80;;;;;;;21.92;100.00;99811.35;105475;1260;60421;-70
2023/07/15 04:08:28;;;;;;;60.40;54.50;;;;;;;21.90;100.00;99814.45;105558;1261;73436;-63
2023/07/15 04:10:55;;;;;;;61.30;55.00;;;;;;;21.79;100.00;99824.59;105487;1261;67714;-64
2023/07/15 04:13:22;;;;;;;76.80;67.20;;;;;;;21.74;100.00;99834.89;105189;1260;72858;-63
2023/07/15 04:15:49;;;;;;;119.30;107.10;;;;;;;21.95;100.00;99831.95;105592;1260;60410;-75
2023/07/15 04:18:16;;;;;;;152.60;136.60;;;;;;;22.62;100.00;99840.46;105536;1259;60504;-72
2023/07/15 04:20:43;;;;;;;38.80;34.70;;;;;;;23.48;100.00;99838.20;105521;1260;73778;-64
2023/07/15 04:23:10;;;;;;;65.90;60.50;;;;;;;24.40;100.00;99830.34;105410;1257;66897;-63
2023/07/15 04:25:38;;;;;;;41.30;38.10;;;;;;;25.16;100.00;99820.17;105418;1261;71184;-64
2023/07/15 04:28:05;;;;;;;16.20;14.80;;;;;;;25.54;100.00;99806.19;105281;1261;61790;-64
2023/07/15 04:30:32;;;;;;;10.20;9.20;;;;;;;25.67;100.00;99800.02;105578;1256;60480;-70
2023/07/15 04:32:59;;;;;;;10.40;8.30;;;;;;;25.72;100.00;99795.77;105501;1260;73858;-64
2023/07/15 04:35:28;;;;;;;15.20;7.50;;;;;;;26.06;100.00;99792.36;105385;1260;66825;-64
2023/07/15 04:37:55;;;;;;;9.50;7.90;;;;;;;26.73;100.00;99789.72;105714;1257;71198;-67
2023/07/15 04:40:22;;;;;;;9.30;6.80;;;;;;;27.47;100.00;99787.49;105563;1259;60632;-64
2023/07/15 04:42:49;;;;;;;9.90;7.00;;;;;;;28.21;100.00;99788.30;105415;1262;60971;-65
2023/07/15 04:45:16;;;;;;;7.20;6.40;;;;;;;28.92;100.00;99782.69;105369;1258;73874;-65
2023/07/15 04:47:43;;;;;;;8.70;6.00;;;;;;;29.67;100.00;99783.13;105390;1257;65841;-65
2023/07/15 04:50:10;;;;;;;7.80;6.00;;;;;;;30.28;100.00;99787.08;105585;1260;72514;-72
2023/07/15 04:52:38;;;;;;;7.60;6.10;;;;;;;30.87;100.00;99787.67;105551;1261;60455;-65
2023/07/15 04:55:05;;;;;;;6.00;5.40;;;;;;;31.46;100.00;99793.88;105492;1260;60356;-70
2023/07/15 04:57:32;;;;;;;7.90;5.70;;;;;;;31.98;100.00;99800.73;105442;1256;65291;-64
2023/07/15 04:59:59;;;;;;;8.70;6.00;;;;;;;32.47;100.00;99796.48;105753;1257;60492;-66
2023/07/15 05:02:31;;;;;;;8.10;6.00;;;;;;;32.70;100.00;99794.90;105279;1262;73508;-66
2023/07/15 05:04:58;;;;;;;6.90;5.90;;;;;;;32.89;100.00;99796.59;105374;1260;60310;-64
2023/07/15 05:07:25;;;;;;;7.10;5.70;;;;;;;33.20;100.00;99802.20;105173;1257;60451;-61
2023/07/15 05:09:52;;;;;;;7.60;6.10;;;;;;;33.53;100.00;99797.13;105083;1259;65336;-62
2023/07/15 05:12:19;;;;;;;9.00;5.50;;;;;;;33.98;100.00;99794.59;105151;1260;60559;-61
2023/07/15 05:14:48;;;;;;;7.50;6.20;;;;;;;34.53;95.05;99793.27;105066;1261;64122;-63
2023/07/15 05:17:15;;;;;;;8.20;6.00;;;;;;;34.88;88.83;99790.87;105941;1258;60543;-67
2023/07/15 05:19:43;;;;;;;8.30;6.40;;;;;;;35.27;84.50;99791.13;105081;1260;60450;-61
2023/07/15 05:22:10;;;;;;;9.80;6.40;;;;;;;35.65;76.20;99794.11;105098;1260;64983;-68
2023/07/15 05:24:37;;;;;;;7.40;5.80;;;;;;;35.94;70.87;99802.33;105485;1260;60507;-62
2023/07/15 05:27:05;;;;;;;6.90;6.10;;;;;;;36.13;65.18;99809.42;105096;1262;64068;-62
2023/07/15 05:29:33;;;;;;;7.50;5.50;;;;;;;35.91;62.01;99818.46;105392;1261;60404;-64
2023/07/15 05:32:00;;;;;;;7.70;5.80;;;;;;;35.30;66.62;99824.39;104817;1261;60451;-63
2023/07/15 05:34:27;;;;;;;6.70;6.00;;;;;;;34.74;73.16;99827.40;105068;1259;65129;-62
2023/07/15 05:36:54;;;;;;;6.90;6.00;;;;;;;34.06;79.25;99828.16;105606;1258;60467;-63
2023/07/15 05:39:21;;;;;;;7.10;5.90;;;;;;;33.31;89.47;99834.44;105517;1257;62655;-62
2023/07/15 05:41:50;;;;;;;8.90;6.20;;;;;;;32.90;97.99;99836.24;105140;1262;60541;-61
2023/07/15 05:44:17;;;;;;;9.10;5.60;;;;;;;33.03;99.88;99826.73;105265;1260;60767;-65
2023/07/15 05:46:44;;;;;;;9.10;6.10;;;;;;;33.35;97.87;99823.43;105562;1258;64020;-62
2023/07/15 05:49:11;;;;;;;8.40;5.50;;;;;;;33.80;93.55;99819.56;105795;1262;60429;-63
2023/07/15 05:51:38;;;;;;;7.40;5.40;;;;;;;34.28;85.09;99824.95;105176;1257;73125;-69
2023/07/15 05:54:05;;;;;;;6.70;5.20;;;;;;;34.26;80.75;99831.26;104869;1259;60540;-64
2023/07/15 05:56:33;;;;;;;7.80;4.90;;;;;;;33.95;82.81;99837.77;105222;1261;60349;-62
2023/07/15 05:59:00;;;;;;;6.50;5.10;;;;;;;33.64;86.08;99843.89;105463;1258;65166;-64
2023/07/15 06:01:27;;;;;;;7.20;5.30;;;;;;;33.36;86.43;99848.72;105136;1259;60528;-61
2023/07/15 06:03:54;;;;;;;6.00;5.10;;;;;;;33.11;89.98;99853.77;105048;1258;63908;-61
2023/07/15 06:06:21;;;;;;;6.90;4.60;;;;;;;33.04;92.69;99857.10;105008;1261;60519;-67
2023/07/15 06:08:49;;;;;;;6.20;4.90;;;;;;;32.97;93.59;99851.97;105102;1261;60438;-61
2023/07/15 06:11:17;;;;;;;7.20;5.30;;;;;;;32.85;94.71;99854.23;105025;1257;63891;-64
2023/07/15 06:13:44;;;;;;;8.20;5.20;;;;;;;32.79;97.97;99856.52;105105;1257;67413;-63
2023/07/15 06:16:11;;;;;;;6.90;5.40;;;;;;;32.95;95.62;99861.09;105404;1260;72746;-62
2023/07/15 06:18:38;;;;;;;5.20;4.50;;;;;;;33.20;93.09;99858.39;105123;1261;60358;-62
2023/07/15 06:21:07;;;;;;;6.20;4.90;;;;;;;33.47;91.32;99854.35;105084;1269;60499;-61
2023/07/15 06:23:34;;;;;;;8.00;4.60;;;;;;;33.91;87.45;99851.27;104953;1260;64097;-61
2023/07/15 06:26:01;;;;;;;8.30;4.70;;;;;;;34.33;80.07;99847.09;105344;1259;60442;-66
2023/07/15 06:28:28;;;;;;;5.70;5.00;;;;;;;34.54;77.21;99846.58;105418;1260;64005;-66
2023/07/15 06:31:03;;;;;;;7.80;4.80;;;;;;;34.77;74.86;99842.88;105064;1260;60335;-63
2023/07/15 06:33:36;;;;;;;5.90;4.90;;;;;;;35.15;70.72;99843.79;104807;1260;60482;-62
2023/07/15 06:36:04;;;;;;;5.30;4.50;;;;;;;35.50;63.38;99842.88;105238;1258;65286;-67
2023/07/15 06:38:31;;;;;;;5.60;4.40;;;;;;;35.54;61.80;99845.52;105357;1260;60496;-64
2023/07/15 06:40:57;;;;;;;7.00;4.80;;;;;;;35.77;60.95;99846.91;104893;1257;63807;-63
2023/07/15 06:43:24;;;;;;;8.70;4.80;;;;;;;36.16;58.72;99847.16;105020;1260;61077;-62
2023/07/15 06:45:51;;;;;;;7.50;4.30;;;;;;;36.57;56.09;99849.45;105100;1261;60493;-63
2023/07/15 06:48:19;;;;;;;6.50;4.80;;;;;;;37.04;51.23;99854.83;105000;1261;63923;-67
2023/07/15 06:50:46;;;;;;;6.20;4.50;;;;;;;37.35;46.20;99850.73;105139;1261;60544;-63
2023/07/15 06:53:13;;;;;;;5.00;4.50;;;;;;;37.34;44.92;99850.97;105106;1260;62951;-63
2023/07/15 06:55:40;;;;;;;6.30;4.50;;;;;;;37.27;43.46;99853.60;105293;1264;60539;-64
2023/07/15 06:58:07;;;;;;;6.10;3.90;;;;;;;37.14;43.36;99850.98;105960;1257;60538;-67
2023/07/15 07:00:34;;;;;;;5.60;4.50;;;;;;;37.11;45.00;99852.51;105290;1257;63947;-67
2023/07/15 07:03:02;;;;;;;6.10;4.50;;;;;;;37.13;43.02;99856.80;105107;1260;60328;-63
2023/07/15 07:05:29;;;;;;;5.60;4.30;;;;;;;37.04;42.15;99860.28;105122;1260;63715;-62
2023/07/15 07:07:56;;;;;;;5.10;4.10;;;;;;;36.91;42.71;99859.73;105001;1260;60449;-64
2023/07/15 07:10:23;;;;;;;7.50;5.40;;;;;;;36.95;42.36;99863.73;105776;1257;60426;-67
2023/07/15 07:12:51;;;;;;;7.10;4.10;;;;;;;37.13;42.19;99865.96;105501;1260;66585;-64
2023/07/15 07:15:18;;;;;;;4.50;3.70;;;;;;;37.32;41.58;99863.05;105532;1258;60637;-64
2023/07/15 07:17:46;;;;;;;5.60;3.60;;;;;;;37.49;40.87;99860.81;105515;1259;62661;-64
2023/07/15 07:20:13;;;;;;;4.20;3.70;;;;;;;37.64;39.09;99855.23;105492;1257;61013;-65
2023/07/15 07:22:41;;;;;;;5.50;4.00;;;;;;;37.63;40.14;99864.91;105836;1255;59414;-68
2023/07/15 07:25:09;;;;;;;5.10;4.00;;;;;;;37.69;39.27;99865.36;105380;1257;64611;-65
2023/07/15 07:27:36;;;;;;;4.60;3.80;;;;;;;37.75;37.98;99857.63;105475;1261;60514;-64
2023/07/15 07:30:03;;;;;;;5.60;3.80;;;;;;;37.66;36.58;99860.05;105643;1257;64148;-64
2023/07/15 07:32:30;;;;;;;5.60;4.70;;;;;;;37.49;36.64;99866.52;105578;1256;60416;-67
2023/07/15 07:34:58;;;;;;;5.50;3.30;;;;;;;37.39;37.38;99860.33;105489;1260;60407;-65
2023/07/15 07:37:25;;;;;;;5.10;3.50;;;;;;;37.38;37.56;99860.40;105181;1259;65238;-65
2023/07/15 07:39:53;;;;;;;5.20;3.40;;;;;;;37.56;37.71;99858.33;105130;1257;60427;-65
2023/07/15 07:42:20;;;;;;;5.50;3.20;;;;;;;37.79;36.89;99858.52;105267;1260;64083;-63
2023/07/15 07:44:47;;;;;;;4.40;3.20;;;;;;;37.80;35.40;99856.75;105342;1260;60422;-64
2023/07/15 07:47:14;;;;;;;4.10;3.40;;;;;;;37.58;35.79;99856.72;105746;1259;60490;-65
2023/07/15 07:49:41;;;;;;;5.60;3.20;;;;;;;37.43;35.10;99856.97;105395;1260;65317;-64
2023/07/15 07:52:09;;;;;;;3.40;2.70;;;;;;;37.34;34.90;99857.73;105737;1260;60435;-66
2023/07/15 07:54:37;;;;;;;3.70;3.20;;;;;;;37.23;35.12;99862.34;105713;1256;62660;-68
2023/07/15 07:57:04;;;;;;;5.40;3.10;;;;;;;37.05;34.70;99867.82;105217;1257;60480;-67
2023/07/15 07:59:31;;;;;;;3.30;2.50;;;;;;;36.83;35.35;99870.02;105684;1260;60291;-65
2023/07/15 08:01:58;;;;;;;3.90;3.20;;;;;;;36.85;35.75;99867.32;105443;1260;65057;-64
2023/07/15 08:04:25;;;;;;;4.10;3.20;;;;;;;36.82;34.83;99870.85;105415;1256;60546;-64
2023/07/15 08:06:53;;;;;;;5.70;3.00;;;;;;;36.51;35.47;99868.84;105208;1262;63021;-65
2023/07/15 08:09:21;;;;;;;4.60;2.90;;;;;;;36.43;37.25;99868.33;105591;1260;60430;-71
2023/07/15 08:11:49;;;;;;;3.20;2.50;;;;;;;36.62;36.66;99872.25;105565;1260;60303;-65
2023/07/15 08:14:17;;;;;;;3.70;2.50;;;;;;;36.81;35.41;99871.46;105046;1260;65927;-65
2023/07/15 08:16:45;;;;;;;4.10;2.30;;;;;;;36.99;33.25;99869.85;105338;1257;59239;-68
2023/07/15 08:19:13;;;;;;;4.30;2.70;;;;;;;36.93;32.72;99868.30;105301;1257;64151;-70
2023/07/15 08:21:40;;;;;;;5.20;2.70;;;;;;;36.85;33.24;99869.73;105250;1260;61012;-65
2023/07/15 08:24:07;;;;;;;4.90;2.70;;;;;;;36.96;33.31;99866.63;105110;1257;60438;-67
2023/07/15 08:26:35;;;;;;;3.20;2.40;;;;;;;37.00;32.49;99865.36;105095;1260;65429;-66
2023/07/15 08:29:02;;;;;;;3.50;2.40;;;;;;;36.87;32.24;99864.95;104956;1262;60995;-67
2023/07/15 08:31:29;;;;;;;3.70;2.40;;;;;;;36.74;32.62;99866.88;105262;1260;64018;-67
2023/07/15 08:33:57;;;;;;;4.80;2.00;;;;;;;36.70;33.36;99866.67;104857;1260;60411;-62
2023/07/15 08:36:24;;;;;;;3.30;2.10;;;;;;;36.80;32.99;99868.83;105221;1256;60435;-62
2023/07/15 08:38:51;;;;;;;3.50;2.30;;;;;;;36.80;32.24;99864.23;105396;1256;63815;-62
2023/07/15 08:41:18;;;;;;;4.40;2.30;;;;;;;36.74;32.39;99863.79;105110;1257;60539;-61
2023/07/15 08:43:46;;;;;;;3.10;1.90;;;;;;;36.82;32.37;99867.84;105058;1260;63981;-64
2023/07/15 08:46:27;;;;;;;2.80;2.20;;;;;;;36.83;31.71;99864.20;105060;1257;60516;-61
2023/07/15 08:48:55;;;;;;;3.90;1.80;;;;;;;36.81;31.33;99862.78;105224;1257;60497;-67
2023/07/15 08:51:25;;;;;;;3.80;2.00;;;;;;;36.67;31.17;99868.96;105400;1256;65305;-66
2023/07/15 08:53:53;;;;;;;4.40;2.00;;;;;;;36.47;31.54;99871.10;105066;1260;60409;-62
2023/07/15 08:56:21;;;;;;;4.00;1.90;;;;;;;36.38;31.47;99871.02;105077;1260;62542;-63
2023/07/15 08:58:48;;;;;;;3.40;1.80;;;;;;;36.38;30.83;99868.95;105654;1260;60426;-66
2023/07/15 09:01:15;;;;;;;3.20;1.80;;;;;;;36.35;30.50;99868.05;105182;1257;60793;-64
2023/07/15 09:03:42;;;;;;;4.30;2.20;;;;;;;36.22;31.18;99869.27;104777;1260;65237;-64
2023/07/15 09:06:10;;;;;;;3.80;2.00;;;;;;;36.20;31.94;99862.87;105076;1261;61761;-62
2023/07/15 09:08:40;;;;;;;2.80;1.70;;;;;;;36.26;31.93;99866.30;105380;1261;62805;-67
2023/07/15 09:11:07;;;;;;;3.20;1.50;;;;;;;36.30;31.88;99877.52;105085;1258;60443;-66
2023/07/15 09:13:34;;;;;;;3.90;1.70;;;;;;;36.37;31.22;99876.91;105119;1260;60417;-66
2023/07/15 09:16:02;;;;;;;4.40;1.80;;;;;;;36.46;31.45;99874.04;105358;1257;64037;-64
2023/07/15 09:18:30;;;;;;;3.50;1.90;;;;;;;36.63;31.19;99879.09;105481;1260;60395;-64
2023/07/15 09:21:14;;;;;;;5.10;1.80;;;;;;;36.64;30.80;99878.63;105565;1257;64201;-66
2023/07/15 09:23:44;;;;;;;2.60;1.80;;;;;;;36.61;31.44;99878.51;105537;1257;60513;-65
2023/07/15 09:26:12;;;;;;;3.20;2.00;;;;;;;36.53;31.35;99882.14;105631;1260;60348;-65
2023/07/15 09:28:41;;;;;;;4.80;2.20;;;;;;;36.33;32.20;99884.61;105597;1258;63877;-64
2023/07/15 09:31:08;;;;;;;3.80;1.90;;;;;;;36.18;32.28;99885.80;105578;1259;60437;-65
2023/07/15 09:33:39;;;;;;;3.30;2.00;;;;;;;36.14;30.62;99888.74;105224;1256;64003;-64
2023/07/15 09:36:06;;;;;;;1.90;1.30;;;;;;;36.12;29.86;99895.24;105471;1257;60549;-65
2023/07/15 09:38:36;;;;;;;4.90;1.70;;;;;;;36.15;28.82;99895.13;105548;1256;59601;-65
2023/07/15 09:41:10;;;;;;;2.70;1.70;;;;;;;36.13;29.15;99894.02;105560;1260;64985;-66
2023/07/15 09:43:51;;;;;;;4.50;1.70;;;;;;;36.08;29.83;99896.88;105592;1260;60339;-65
2023/07/15 09:46:19;;;;;;;2.70;1.90;;;;;;;35.90;30.66;99890.29;105526;1258;62887;-65
2023/07/15 09:48:50;;;;;;;6.10;1.80;;;;;;;35.89;31.25;99898.17;105467;1260;60437;-65
2023/07/15 09:51:17;;;;;;;4.70;1.80;;;;;;;35.97;31.19;99894.73;105458;1257;60473;-64
2023/07/15 09:53:49;;;;;;;4.00;1.70;;;;;;;36.12;31.30;99894.92;105632;1257;65180;-66
2023/07/15 09:56:17;;;;;;;2.60;1.80;;;;;;;36.29;29.81;99895.10;105476;1259;60380;-65
2023/07/15 09:58:46;;;;;;;3.40;1.90;;;;;;;36.29;29.25;99897.82;105585;1256;65000;-67
2023/07/15 10:01:17;;;;;;;2.30;1.40;;;;;;;36.28;29.65;99898.52;105361;1260;60447;-65
2023/07/15 10:03:53;;;;;;;2.60;1.60;;;;;;;36.37;29.72;99891.96;105596;1257;60405;-64
2023/07/15 10:06:20;;;;;;;2.70;1.70;;;;;;;36.54;29.82;99893.62;105232;1256;65093;-64
2023/07/15 10:08:49;;;;;;;2.80;1.50;;;;;;;36.62;29.59;99893.89;105039;1257;60361;-65
2023/07/15 10:11:16;;;;;;;5.60;2.00;;;;;;;36.62;29.47;99897.45;104971;1260;62556;-68
2023/07/15 10:13:44;;;;;;;3.60;1.80;;;;;;;36.61;29.13;99895.82;105003;1260;60565;-66
2023/07/15 10:16:12;;;;;;;4.40;1.80;;;;;;;36.46;29.49;99890.32;105665;1257;60424;-63
2023/07/15 10:18:39;;;;;;;2.60;1.50;;;;;;;36.32;29.28;99890.18;105044;1258;63712;-65
2023/07/15 10:21:09;;;;;;;2.90;1.80;;;;;;;36.24;29.74;99894.96;105059;1259;60493;-65
2023/07/15 10:23:36;;;;;;;4.40;1.50;;;;;;;36.22;28.68;99890.73;105180;1256;63929;-64
2023/07/15 10:26:07;;;;;;;3.70;1.70;;;;;;;36.20;28.37;99889.54;105340;1257;60417;-65
2023/07/15 10:28:39;;;;;;;2.60;1.30;;;;;;;36.13;28.51;99893.69;105378;1256;60464;-66
2023/07/15 10:31:14;;;;;;;2.20;1.60;;;;;;;36.11;28.75;99891.35;105695;1256;65083;-65
2023/07/15 10:34:02;;;;;;;2.50;1.50;;;;;;;36.13;28.70;99891.84;105489;1257;60508;-65
2023/07/15 10:36:35;;;;;;;2.20;1.30;;;;;;;36.06;28.04;99892.73;105952;1256;63495;-64
2023/07/15 10:39:18;;;;;;;5.60;1.50;;;;;;;35.88;28.19;99890.10;105620;1261;60339;-64
2023/07/15 10:41:49;;;;;;;4.70;1.40;;;;;;;35.70;28.23;99885.86;105874;1256;60425;-66
2023/07/15 10:44:23;;;;;;;8.70;1.90;;;;;;;35.55;28.38;99882.89;105638;1258;65885;-64
2023/07/15 10:47:01;;;;;;;4.00;1.50;;;;;;;35.38;29.15;99882.23;105526;1256;60914;-64
2023/07/15 10:49:28;;;;;;;3.40;1.90;;;;;;;35.27;29.58;99887.67;105423;1255;64863;-66
2023/07/15 10:51:56;;;;;;;3.00;1.60;;;;;;;35.18;29.46;99890.45;105493;1256;60513;-64
2023/07/15 10:54:27;;;;;;;2.50;1.30;;;;;;;35.07;28.52;99890.39;105564;1259;60467;-63
2023/07/15 10:56:54;;;;;;;3.10;1.50;;;;;;;34.98;28.79;99892.66;105878;1255;64109;-65
2023/07/15 10:59:31;;;;;;;2.80;1.30;;;;;;;34.97;29.13;99891.41;106158;1256;60632;-65
2023/07/15 11:01:59;;;;;;;7.30;1.70;;;;;;;34.99;29.33;99888.81;105236;1256;64293;-64
2023/07/15 11:04:27;;;;;;;7.70;1.50;;;;;;;34.93;28.93;99888.55;105422;1256;60433;-65
2023/07/15 11:07:01;;;;;;;4.90;1.70;;;;;;;34.81;28.79;99895.55;105923;1255;61765;-64
2023/07/15 11:09:28;;;;;;;5.70;1.80;;;;;;;34.69;29.16;99899.17;105882;1255;64233;-65
2023/07/15 11:11:55;;;;;;;4.30;2.40;;;;;;;34.53;28.92;99899.42;105587;1255;60320;-64
2023/07/15 11:14:27;;;;;;;4.40;2.10;;;;;;;34.26;29.15;99900.33;105410;1261;62620;-63
2023/07/15 11:16:55;;;;;;;4.60;1.70;;;;;;;34.01;29.20;99906.15;105648;1256;60380;-63
2023/07/15 11:19:23;;;;;;;3.60;1.20;;;;;;;33.76;29.25;99910.15;106247;1255;60451;-66
2023/07/15 11:21:51;;;;;;;1.20;1.00;;;;;;;33.61;29.54;99911.06;105655;1255;64940;-67
2023/07/15 11:24:20;;;;;;;3.50;1.20;;;;;;;33.62;29.75;99911.17;105650;1257;60544;-65